sensor_id;sensor_type;location;lat;lon;timestamp;P1;durP1;ratioP1;P2;durP2;ratioP2
9052;SDS011;4561;47.450;7.516;2023-03-23T00:00:14;1.30;;;1.00;;
9052;SDS011;4561;47.450;7.516;2023-03-23T00:03:34;3.40;;;1.50;;
9052;SDS011;4561;47.450;7.516;2023-03-23T00:06:55;3.07;;;1.50;;
9052;SDS011;4561;47.450;7.516;2023-03-23T00:10:15;1.40;;;1.10;;
9052;SDS011;4561;47.450;7.516;2023-03-23T00:13:36;4.00;;;1.33;;
9052;SDS011;4561;47.450;7.516;2023-03-23T00:16:57;2.77;;;1.47;;
9052;SDS011;4561;47.450;7.516;2023-03-23T00:20:17;4.23;;;1.20;;
9052;SDS011;4561;47.450;7.516;2023-03-23T00:23:44;1.80;;;1.30;;
9052;SDS011;4561;47.450;7.516;2023-03-23T00:31:22;1.90;;;1.40;;
9052;SDS011;4561;47.450;7.516;2023-03-23T00:34:42;2.37;;;1.50;;
9052;SDS011;4561;47.450;7.516;2023-03-23T00:38:04;3.87;;;2.07;;
9052;SDS011;4561;47.450;7.516;2023-03-23T00:41:25;2.13;;;1.63;;
9052;SDS011;4561;47.450;7.516;2023-03-23T00:44:48;3.47;;;1.80;;
9052;SDS011;4561;47.450;7.516;2023-03-23T00:48:09;3.40;;;1.90;;
9052;SDS011;4561;47.450;7.516;2023-03-23T00:51:32;3.30;;;1.67;;
9052;SDS011;4561;47.450;7.516;2023-03-23T00:54:52;2.27;;;1.60;;
9052;SDS011;4561;47.450;7.516;2023-03-23T01:02:01;2.03;;;1.83;;
9052;SDS011;4561;47.450;7.516;2023-03-23T01:05:22;4.03;;;2.03;;
9052;SDS011;4561;47.450;7.516;2023-03-23T01:08:42;1.73;;;1.60;;
9052;SDS011;4561;47.450;7.516;2023-03-23T01:12:05;4.10;;;1.87;;
9052;SDS011;4561;47.450;7.516;2023-03-23T01:15:26;3.30;;;2.00;;
9052;SDS011;4561;47.450;7.516;2023-03-23T01:18:49;4.73;;;1.83;;
9052;SDS011;4561;47.450;7.516;2023-03-23T01:22:10;2.17;;;1.97;;
9052;SDS011;4561;47.450;7.516;2023-03-23T01:25:31;2.27;;;1.80;;
9052;SDS011;4561;47.450;7.516;2023-03-23T01:28:54;1.97;;;1.80;;
9052;SDS011;4561;47.450;7.516;2023-03-23T01:32:15;2.37;;;1.80;;
9052;SDS011;4561;47.450;7.516;2023-03-23T01:35:38;2.27;;;1.80;;
9052;SDS011;4561;47.450;7.516;2023-03-23T01:38:59;2.30;;;1.70;;
9052;SDS011;4561;47.450;7.516;2023-03-23T01:42:39;3.70;;;1.70;;
9052;SDS011;4561;47.450;7.516;2023-03-23T01:45:59;2.13;;;1.57;;
9052;SDS011;4561;47.450;7.516;2023-03-23T01:49:23;3.63;;;2.10;;
9052;SDS011;4561;47.450;7.516;2023-03-23T01:52:46;3.83;;;1.90;;
9052;SDS011;4561;47.450;7.516;2023-03-23T01:56:09;3.83;;;1.40;;
9052;SDS011;4561;47.450;7.516;2023-03-23T01:59:33;1.33;;;1.23;;
9052;SDS011;4561;47.450;7.516;2023-03-23T02:02:57;1.43;;;1.33;;
9052;SDS011;4561;47.450;7.516;2023-03-23T02:06:17;2.30;;;1.23;;
9052;SDS011;4561;47.450;7.516;2023-03-23T02:09:38;1.93;;;1.40;;
9052;SDS011;4561;47.450;7.516;2023-03-23T02:12:59;1.60;;;1.20;;
9052;SDS011;4561;47.450;7.516;2023-03-23T02:16:23;1.73;;;1.40;;
9052;SDS011;4561;47.450;7.516;2023-03-23T02:34:32;2.37;;;1.20;;
9052;SDS011;4561;47.450;7.516;2023-03-23T02:42:11;1.57;;;1.13;;
9052;SDS011;4561;47.450;7.516;2023-03-23T02:45:33;1.30;;;1.13;;
9052;SDS011;4561;47.450;7.516;2023-03-23T02:48:55;4.83;;;1.10;;
9052;SDS011;4561;47.450;7.516;2023-03-23T02:52:20;1.50;;;1.10;;
9052;SDS011;4561;47.450;7.516;2023-03-23T02:55:43;1.33;;;1.00;;
9052;SDS011;4561;47.450;7.516;2023-03-23T02:59:04;2.37;;;1.20;;
9052;SDS011;4561;47.450;7.516;2023-03-23T03:02:28;1.30;;;1.20;;
9052;SDS011;4561;47.450;7.516;2023-03-23T03:16:43;1.87;;;1.40;;
9052;SDS011;4561;47.450;7.516;2023-03-23T03:20:05;2.13;;;1.37;;
9052;SDS011;4561;47.450;7.516;2023-03-23T03:23:29;1.60;;;1.10;;
9052;SDS011;4561;47.450;7.516;2023-03-23T03:26:52;4.33;;;1.30;;
9052;SDS011;4561;47.450;7.516;2023-03-23T03:30:19;1.43;;;1.10;;
9052;SDS011;4561;47.450;7.516;2023-03-23T03:33:41;1.43;;;1.33;;
9052;SDS011;4561;47.450;7.516;2023-03-23T03:37:05;2.93;;;1.27;;
9052;SDS011;4561;47.450;7.516;2023-03-23T03:40:25;3.13;;;1.20;;
9052;SDS011;4561;47.450;7.516;2023-03-23T03:43:46;1.90;;;1.33;;
9052;SDS011;4561;47.450;7.516;2023-03-23T03:47:06;1.43;;;1.33;;
9052;SDS011;4561;47.450;7.516;2023-03-23T03:50:30;1.43;;;1.33;;
9052;SDS011;4561;47.450;7.516;2023-03-23T03:53:51;1.80;;;1.50;;
9052;SDS011;4561;47.450;7.516;2023-03-23T03:57:11;1.70;;;1.40;;
9052;SDS011;4561;47.450;7.516;2023-03-23T04:00:31;3.27;;;1.07;;
9052;SDS011;4561;47.450;7.516;2023-03-23T04:03:52;1.70;;;1.30;;
9052;SDS011;4561;47.450;7.516;2023-03-23T04:07:12;1.50;;;1.40;;
9052;SDS011;4561;47.450;7.516;2023-03-23T04:10:33;1.53;;;1.00;;
9052;SDS011;4561;47.450;7.516;2023-03-23T04:13:54;1.90;;;1.40;;
9052;SDS011;4561;47.450;7.516;2023-03-23T04:17:14;1.47;;;1.30;;
9052;SDS011;4561;47.450;7.516;2023-03-23T04:20:37;1.63;;;1.40;;
9052;SDS011;4561;47.450;7.516;2023-03-23T04:23:58;1.70;;;1.50;;
9052;SDS011;4561;47.450;7.516;2023-03-23T04:27:23;2.53;;;1.10;;
9052;SDS011;4561;47.450;7.516;2023-03-23T04:30:45;1.27;;;1.10;;
9052;SDS011;4561;47.450;7.516;2023-03-23T04:34:08;1.53;;;1.37;;
9052;SDS011;4561;47.450;7.516;2023-03-23T04:37:29;3.00;;;1.27;;
9052;SDS011;4561;47.450;7.516;2023-03-23T04:40:50;1.40;;;1.07;;
9052;SDS011;4561;47.450;7.516;2023-03-23T04:44:11;2.27;;;1.60;;
9052;SDS011;4561;47.450;7.516;2023-03-23T04:47:37;1.70;;;1.30;;
9052;SDS011;4561;47.450;7.516;2023-03-23T04:51:01;2.23;;;1.47;;
9052;SDS011;4561;47.450;7.516;2023-03-23T04:54:22;1.33;;;1.17;;
9052;SDS011;4561;47.450;7.516;2023-03-23T04:57:46;2.50;;;1.30;;
9052;SDS011;4561;47.450;7.516;2023-03-23T05:01:07;2.00;;;1.27;;
9052;SDS011;4561;47.450;7.516;2023-03-23T05:04:29;2.23;;;1.30;;
9052;SDS011;4561;47.450;7.516;2023-03-23T05:07:50;2.03;;;1.07;;
9052;SDS011;4561;47.450;7.516;2023-03-23T05:11:10;1.83;;;1.23;;
9052;SDS011;4561;47.450;7.516;2023-03-23T05:14:31;1.40;;;1.30;;
9052;SDS011;4561;47.450;7.516;2023-03-23T05:17:51;1.30;;;1.20;;
9052;SDS011;4561;47.450;7.516;2023-03-23T05:21:12;1.57;;;1.30;;
9052;SDS011;4561;47.450;7.516;2023-03-23T05:24:32;1.67;;;1.10;;
9052;SDS011;4561;47.450;7.516;2023-03-23T05:27:52;1.43;;;1.20;;
9052;SDS011;4561;47.450;7.516;2023-03-23T05:31:13;1.90;;;0.97;;
9052;SDS011;4561;47.450;7.516;2023-03-23T05:34:34;1.50;;;1.33;;
9052;SDS011;4561;47.450;7.516;2023-03-23T05:37:55;2.13;;;1.30;;
9052;SDS011;4561;47.450;7.516;2023-03-23T05:41:15;1.40;;;1.27;;
9052;SDS011;4561;47.450;7.516;2023-03-23T05:44:36;1.60;;;1.20;;
9052;SDS011;4561;47.450;7.516;2023-03-23T05:47:56;1.30;;;1.00;;
9052;SDS011;4561;47.450;7.516;2023-03-23T05:51:17;1.73;;;1.20;;
9052;SDS011;4561;47.450;7.516;2023-03-23T05:54:38;1.27;;;1.17;;
9052;SDS011;4561;47.450;7.516;2023-03-23T05:57:59;4.50;;;1.13;;
9052;SDS011;4561;47.450;7.516;2023-03-23T06:01:19;1.90;;;1.37;;
9052;SDS011;4561;47.450;7.516;2023-03-23T06:04:40;1.43;;;1.20;;
9052;SDS011;4561;47.450;7.516;2023-03-23T06:08:00;1.90;;;1.40;;
9052;SDS011;4561;47.450;7.516;2023-03-23T06:11:21;2.77;;;1.30;;
9052;SDS011;4561;47.450;7.516;2023-03-23T06:14:46;3.00;;;1.83;;
9052;SDS011;4561;47.450;7.516;2023-03-23T06:18:07;1.40;;;1.30;;
9052;SDS011;4561;47.450;7.516;2023-03-23T06:21:28;1.67;;;1.30;;
9052;SDS011;4561;47.450;7.516;2023-03-23T06:24:49;1.57;;;1.17;;
9052;SDS011;4561;47.450;7.516;2023-03-23T06:28:09;4.03;;;1.10;;
9052;SDS011;4561;47.450;7.516;2023-03-23T06:31:30;2.50;;;1.27;;
9052;SDS011;4561;47.450;7.516;2023-03-23T06:34:53;2.87;;;1.43;;
9052;SDS011;4561;47.450;7.516;2023-03-23T06:38:14;1.60;;;1.27;;
9052;SDS011;4561;47.450;7.516;2023-03-23T06:41:35;1.27;;;1.17;;
9052;SDS011;4561;47.450;7.516;2023-03-23T06:44:56;1.40;;;1.30;;
9052;SDS011;4561;47.450;7.516;2023-03-23T06:48:17;1.10;;;1.00;;
9052;SDS011;4561;47.450;7.516;2023-03-23T06:51:38;1.10;;;1.00;;
9052;SDS011;4561;47.450;7.516;2023-03-23T06:54:58;1.10;;;1.00;;
9052;SDS011;4561;47.450;7.516;2023-03-23T06:58:18;1.90;;;1.10;;
9052;SDS011;4561;47.450;7.516;2023-03-23T07:01:39;1.20;;;1.10;;
9052;SDS011;4561;47.450;7.516;2023-03-23T07:04:59;2.10;;;1.47;;
9052;SDS011;4561;47.450;7.516;2023-03-23T07:08:20;1.50;;;1.40;;
9052;SDS011;4561;47.450;7.516;2023-03-23T07:11:44;2.67;;;1.30;;
9052;SDS011;4561;47.450;7.516;2023-03-23T07:15:07;1.30;;;1.20;;
9052;SDS011;4561;47.450;7.516;2023-03-23T07:18:30;1.90;;;1.17;;
9052;SDS011;4561;47.450;7.516;2023-03-23T07:21:53;3.47;;;1.30;;
9052;SDS011;4561;47.450;7.516;2023-03-23T07:25:13;3.33;;;1.70;;
9052;SDS011;4561;47.450;7.516;2023-03-23T07:28:34;1.60;;;1.37;;
9052;SDS011;4561;47.450;7.516;2023-03-23T07:31:56;2.53;;;1.53;;
9052;SDS011;4561;47.450;7.516;2023-03-23T07:35:17;1.07;;;0.97;;
9052;SDS011;4561;47.450;7.516;2023-03-23T07:38:37;2.43;;;1.23;;
9052;SDS011;4561;47.450;7.516;2023-03-23T07:41:58;3.10;;;1.30;;
9052;SDS011;4561;47.450;7.516;2023-03-23T07:45:21;1.87;;;1.30;;
9052;SDS011;4561;47.450;7.516;2023-03-23T07:48:44;3.67;;;1.20;;
9052;SDS011;4561;47.450;7.516;2023-03-23T07:52:05;1.17;;;1.00;;
9052;SDS011;4561;47.450;7.516;2023-03-23T07:55:27;1.97;;;1.10;;
9052;SDS011;4561;47.450;7.516;2023-03-23T07:58:48;1.17;;;1.00;;
9052;SDS011;4561;47.450;7.516;2023-03-23T08:02:09;1.47;;;1.10;;
9052;SDS011;4561;47.450;7.516;2023-03-23T08:05:30;2.43;;;1.20;;
9052;SDS011;4561;47.450;7.516;2023-03-23T08:08:54;1.23;;;1.13;;
9052;SDS011;4561;47.450;7.516;2023-03-23T08:12:15;1.47;;;1.37;;
9052;SDS011;4561;47.450;7.516;2023-03-23T08:15:35;1.93;;;1.40;;
9052;SDS011;4561;47.450;7.516;2023-03-23T08:18:57;1.40;;;1.30;;
9052;SDS011;4561;47.450;7.516;2023-03-23T08:22:20;1.93;;;1.33;;
9052;SDS011;4561;47.450;7.516;2023-03-23T08:25:41;2.60;;;1.27;;
9052;SDS011;4561;47.450;7.516;2023-03-23T08:29:04;3.13;;;1.33;;
9052;SDS011;4561;47.450;7.516;2023-03-23T08:32:26;3.43;;;1.63;;
9052;SDS011;4561;47.450;7.516;2023-03-23T08:35:53;2.63;;;1.70;;
9052;SDS011;4561;47.450;7.516;2023-03-23T08:39:18;2.37;;;1.53;;
9052;SDS011;4561;47.450;7.516;2023-03-23T08:42:41;1.73;;;1.20;;
9052;SDS011;4561;47.450;7.516;2023-03-23T08:46:05;4.33;;;1.50;;
9052;SDS011;4561;47.450;7.516;2023-03-23T08:49:29;1.80;;;1.60;;
9052;SDS011;4561;47.450;7.516;2023-03-23T08:52:53;3.03;;;1.77;;
9052;SDS011;4561;47.450;7.516;2023-03-23T08:56:14;2.30;;;1.40;;
9052;SDS011;4561;47.450;7.516;2023-03-23T08:59:34;1.87;;;1.40;;
9052;SDS011;4561;47.450;7.516;2023-03-23T09:02:57;2.00;;;1.70;;
9052;SDS011;4561;47.450;7.516;2023-03-23T09:06:18;1.50;;;1.40;;
9052;SDS011;4561;47.450;7.516;2023-03-23T09:09:41;3.70;;;1.43;;
9052;SDS011;4561;47.450;7.516;2023-03-23T09:13:02;2.20;;;1.60;;
9052;SDS011;4561;47.450;7.516;2023-03-23T09:16:23;1.60;;;1.50;;
9052;SDS011;4561;47.450;7.516;2023-03-23T09:19:43;1.63;;;1.20;;
9052;SDS011;4561;47.450;7.516;2023-03-23T09:23:08;1.50;;;1.40;;
9052;SDS011;4561;47.450;7.516;2023-03-23T09:26:28;2.00;;;1.53;;
9052;SDS011;4561;47.450;7.516;2023-03-23T09:29:49;1.57;;;1.40;;
9052;SDS011;4561;47.450;7.516;2023-03-23T09:33:09;1.77;;;1.37;;
9052;SDS011;4561;47.450;7.516;2023-03-23T09:36:30;1.73;;;1.63;;
9052;SDS011;4561;47.450;7.516;2023-03-23T09:39:53;1.87;;;1.37;;
9052;SDS011;4561;47.450;7.516;2023-03-23T09:43:22;2.07;;;1.27;;
9052;SDS011;4561;47.450;7.516;2023-03-23T09:50:18;2.20;;;1.43;;
9052;SDS011;4561;47.450;7.516;2023-03-23T09:53:43;5.00;;;2.00;;
9052;SDS011;4561;47.450;7.516;2023-03-23T09:57:14;4.90;;;2.03;;
9052;SDS011;4561;47.450;7.516;2023-03-23T10:00:41;3.00;;;2.00;;
9052;SDS011;4561;47.450;7.516;2023-03-23T10:07:32;4.50;;;2.47;;
9052;SDS011;4561;47.450;7.516;2023-03-23T10:11:01;3.03;;;1.97;;
9052;SDS011;4561;47.450;7.516;2023-03-23T10:18:24;4.47;;;1.77;;
9052;SDS011;4561;47.450;7.516;2023-03-23T10:21:58;3.70;;;1.80;;
9052;SDS011;4561;47.450;7.516;2023-03-23T10:25:24;2.87;;;1.73;;
9052;SDS011;4561;47.450;7.516;2023-03-23T10:28:51;2.50;;;2.00;;
9052;SDS011;4561;47.450;7.516;2023-03-23T10:32:17;3.60;;;1.70;;
9052;SDS011;4561;47.450;7.516;2023-03-23T10:39:31;3.03;;;1.80;;
9052;SDS011;4561;47.450;7.516;2023-03-23T10:42:58;2.43;;;1.80;;
9052;SDS011;4561;47.450;7.516;2023-03-23T10:50:15;2.10;;;1.50;;
9052;SDS011;4561;47.450;7.516;2023-03-23T10:53:44;3.80;;;1.83;;
9052;SDS011;4561;47.450;7.516;2023-03-23T10:57:27;2.33;;;1.53;;
9052;SDS011;4561;47.450;7.516;2023-03-23T11:00:49;3.27;;;1.40;;
9052;SDS011;4561;47.450;7.516;2023-03-23T11:04:11;2.50;;;1.63;;
9052;SDS011;4561;47.450;7.516;2023-03-23T11:07:34;2.93;;;2.00;;
9052;SDS011;4561;47.450;7.516;2023-03-23T11:10:56;2.50;;;1.90;;
9052;SDS011;4561;47.450;7.516;2023-03-23T11:14:23;3.53;;;1.87;;
9052;SDS011;4561;47.450;7.516;2023-03-23T11:17:54;3.07;;;1.70;;
9052;SDS011;4561;47.450;7.516;2023-03-23T11:21:16;3.97;;;2.30;;
9052;SDS011;4561;47.450;7.516;2023-03-23T11:24:41;3.37;;;1.63;;
9052;SDS011;4561;47.450;7.516;2023-03-23T11:28:03;4.73;;;2.20;;
9052;SDS011;4561;47.450;7.516;2023-03-23T11:31:29;1.90;;;1.63;;
9052;SDS011;4561;47.450;7.516;2023-03-23T11:34:57;2.93;;;1.60;;
9052;SDS011;4561;47.450;7.516;2023-03-23T11:38:19;2.10;;;1.90;;
9052;SDS011;4561;47.450;7.516;2023-03-23T11:41:41;2.30;;;2.00;;
9052;SDS011;4561;47.450;7.516;2023-03-23T11:45:18;3.27;;;2.10;;
9052;SDS011;4561;47.450;7.516;2023-03-23T11:48:51;3.30;;;2.20;;
9052;SDS011;4561;47.450;7.516;2023-03-23T11:59:13;2.73;;;1.83;;
9052;SDS011;4561;47.450;7.516;2023-03-23T12:06:39;3.93;;;2.00;;
9052;SDS011;4561;47.450;7.516;2023-03-23T12:13:53;2.27;;;1.63;;
9052;SDS011;4561;47.450;7.516;2023-03-23T12:31:30;2.30;;;2.10;;
9052;SDS011;4561;47.450;7.516;2023-03-23T13:01:11;4.87;;;2.10;;
9052;SDS011;4561;47.450;7.516;2023-03-23T13:04:39;2.73;;;1.93;;
9052;SDS011;4561;47.450;7.516;2023-03-23T13:08:16;5.57;;;2.20;;
9052;SDS011;4561;47.450;7.516;2023-03-23T13:11:40;2.60;;;2.00;;
9052;SDS011;4561;47.450;7.516;2023-03-23T13:15:06;3.87;;;2.00;;
9052;SDS011;4561;47.450;7.516;2023-03-23T13:18:36;2.07;;;1.87;;
9052;SDS011;4561;47.450;7.516;2023-03-23T13:22:03;2.40;;;1.63;;
9052;SDS011;4561;47.450;7.516;2023-03-23T13:28:57;3.07;;;1.90;;
9052;SDS011;4561;47.450;7.516;2023-03-23T13:32:19;2.57;;;2.10;;
9052;SDS011;4561;47.450;7.516;2023-03-23T13:35:40;2.73;;;2.00;;
9052;SDS011;4561;47.450;7.516;2023-03-23T13:39:02;2.20;;;1.80;;
9052;SDS011;4561;47.450;7.516;2023-03-23T13:42:30;3.20;;;1.50;;
9052;SDS011;4561;47.450;7.516;2023-03-23T13:45:55;2.83;;;1.53;;
9052;SDS011;4561;47.450;7.516;2023-03-23T13:49:31;2.10;;;1.90;;
9052;SDS011;4561;47.450;7.516;2023-03-23T13:52:53;3.40;;;1.80;;
9052;SDS011;4561;47.450;7.516;2023-03-23T13:59:46;2.00;;;1.73;;
9052;SDS011;4561;47.450;7.516;2023-03-23T14:03:16;1.93;;;1.73;;
9052;SDS011;4561;47.450;7.516;2023-03-23T14:06:38;3.30;;;1.80;;
9052;SDS011;4561;47.450;7.516;2023-03-23T14:10:05;1.70;;;1.60;;
9052;SDS011;4561;47.450;7.516;2023-03-23T14:17:06;2.80;;;1.97;;
9052;SDS011;4561;47.450;7.516;2023-03-23T14:20:36;2.17;;;1.97;;
9052;SDS011;4561;47.450;7.516;2023-03-23T14:23:59;3.07;;;1.87;;
9052;SDS011;4561;47.450;7.516;2023-03-23T14:27:23;2.10;;;1.90;;
9052;SDS011;4561;47.450;7.516;2023-03-23T14:30:43;2.57;;;2.27;;
9052;SDS011;4561;47.450;7.516;2023-03-23T14:34:10;2.50;;;2.30;;
9052;SDS011;4561;47.450;7.516;2023-03-23T14:37:36;2.67;;;1.93;;
9052;SDS011;4561;47.450;7.516;2023-03-23T14:41:00;3.10;;;2.13;;
9052;SDS011;4561;47.450;7.516;2023-03-23T14:44:30;9.50;;;7.53;;
9052;SDS011;4561;47.450;7.516;2023-03-23T14:47:54;5.27;;;4.20;;
9052;SDS011;4561;47.450;7.516;2023-03-23T14:51:18;2.93;;;2.70;;
9052;SDS011;4561;47.450;7.516;2023-03-23T14:54:40;4.47;;;2.90;;
9052;SDS011;4561;47.450;7.516;2023-03-23T14:58:08;2.57;;;2.37;;
9052;SDS011;4561;47.450;7.516;2023-03-23T15:01:31;3.97;;;3.47;;
9052;SDS011;4561;47.450;7.516;2023-03-23T15:04:57;3.37;;;2.60;;
9052;SDS011;4561;47.450;7.516;2023-03-23T15:08:39;3.17;;;2.00;;
9052;SDS011;4561;47.450;7.516;2023-03-23T15:12:02;2.93;;;1.90;;
9052;SDS011;4561;47.450;7.516;2023-03-23T15:15:31;3.57;;;1.90;;
9052;SDS011;4561;47.450;7.516;2023-03-23T15:18:56;2.93;;;1.87;;
9052;SDS011;4561;47.450;7.516;2023-03-23T15:22:27;3.40;;;1.53;;
9052;SDS011;4561;47.450;7.516;2023-03-23T15:25:51;2.73;;;1.50;;
9052;SDS011;4561;47.450;7.516;2023-03-23T15:29:22;1.40;;;1.30;;
9052;SDS011;4561;47.450;7.516;2023-03-23T15:32:45;2.03;;;1.40;;
9052;SDS011;4561;47.450;7.516;2023-03-23T15:36:14;2.03;;;1.50;;
9052;SDS011;4561;47.450;7.516;2023-03-23T15:39:40;1.90;;;1.30;;
9052;SDS011;4561;47.450;7.516;2023-03-23T15:43:17;3.80;;;1.60;;
9052;SDS011;4561;47.450;7.516;2023-03-23T15:46:50;2.47;;;1.60;;
9052;SDS011;4561;47.450;7.516;2023-03-23T15:50:16;1.20;;;1.07;;
9052;SDS011;4561;47.450;7.516;2023-03-23T15:53:39;1.40;;;1.30;;
9052;SDS011;4561;47.450;7.516;2023-03-23T15:56:59;2.73;;;1.13;;
9052;SDS011;4561;47.450;7.516;2023-03-23T16:00:21;2.17;;;1.37;;
9052;SDS011;4561;47.450;7.516;2023-03-23T16:03:50;1.63;;;1.23;;
9052;SDS011;4561;47.450;7.516;2023-03-23T16:07:13;2.47;;;1.40;;
9052;SDS011;4561;47.450;7.516;2023-03-23T16:10:33;2.63;;;1.17;;
9052;SDS011;4561;47.450;7.516;2023-03-23T16:13:54;2.17;;;1.20;;
9052;SDS011;4561;47.450;7.516;2023-03-23T16:17:17;1.40;;;1.10;;
9052;SDS011;4561;47.450;7.516;2023-03-23T16:20:38;2.33;;;1.20;;
9052;SDS011;4561;47.450;7.516;2023-03-23T16:24:02;1.67;;;1.10;;
9052;SDS011;4561;47.450;7.516;2023-03-23T16:27:22;1.37;;;1.17;;
9052;SDS011;4561;47.450;7.516;2023-03-23T16:30:43;1.47;;;1.10;;
9052;SDS011;4561;47.450;7.516;2023-03-23T16:34:04;2.33;;;1.20;;
9052;SDS011;4561;47.450;7.516;2023-03-23T16:37:24;1.97;;;1.53;;
9052;SDS011;4561;47.450;7.516;2023-03-23T16:40:45;1.10;;;1.00;;
9052;SDS011;4561;47.450;7.516;2023-03-23T16:44:06;1.67;;;1.50;;
9052;SDS011;4561;47.450;7.516;2023-03-23T16:47:28;1.77;;;1.20;;
9052;SDS011;4561;47.450;7.516;2023-03-23T16:50:49;1.97;;;1.17;;
9052;SDS011;4561;47.450;7.516;2023-03-23T16:54:10;1.23;;;1.13;;
9052;SDS011;4561;47.450;7.516;2023-03-23T16:57:31;1.93;;;1.40;;
9052;SDS011;4561;47.450;7.516;2023-03-23T17:00:56;2.20;;;1.20;;
9052;SDS011;4561;47.450;7.516;2023-03-23T17:04:16;1.63;;;1.27;;
9052;SDS011;4561;47.450;7.516;2023-03-23T17:07:37;1.13;;;1.03;;
9052;SDS011;4561;47.450;7.516;2023-03-23T17:10:58;1.77;;;1.50;;
9052;SDS011;4561;47.450;7.516;2023-03-23T17:14:19;1.37;;;1.10;;
9052;SDS011;4561;47.450;7.516;2023-03-23T17:17:40;1.60;;;1.10;;
9052;SDS011;4561;47.450;7.516;2023-03-23T17:21:00;1.17;;;1.07;;
9052;SDS011;4561;47.450;7.516;2023-03-23T17:24:24;1.00;;;0.97;;
9052;SDS011;4561;47.450;7.516;2023-03-23T17:27:44;1.10;;;1.00;;
9052;SDS011;4561;47.450;7.516;2023-03-23T17:31:05;1.33;;;1.20;;
9052;SDS011;4561;47.450;7.516;2023-03-23T17:34:26;1.10;;;1.00;;
9052;SDS011;4561;47.450;7.516;2023-03-23T17:37:49;3.93;;;1.70;;
9052;SDS011;4561;47.450;7.516;2023-03-23T17:41:10;1.40;;;1.30;;
9052;SDS011;4561;47.450;7.516;2023-03-23T17:44:33;1.37;;;1.27;;
9052;SDS011;4561;47.450;7.516;2023-03-23T17:47:56;1.37;;;1.00;;
9052;SDS011;4561;47.450;7.516;2023-03-23T17:51:16;1.20;;;1.10;;
9052;SDS011;4561;47.450;7.516;2023-03-23T17:54:36;1.33;;;1.23;;
9052;SDS011;4561;47.450;7.516;2023-03-23T17:57:57;1.70;;;1.33;;
9052;SDS011;4561;47.450;7.516;2023-03-23T18:01:20;3.63;;;1.20;;
9052;SDS011;4561;47.450;7.516;2023-03-23T18:04:40;1.43;;;1.03;;
9052;SDS011;4561;47.450;7.516;2023-03-23T18:08:01;2.30;;;1.50;;
9052;SDS011;4561;47.450;7.516;2023-03-23T18:11:24;1.77;;;1.30;;
9052;SDS011;4561;47.450;7.516;2023-03-23T18:14:44;1.40;;;1.27;;
9052;SDS011;4561;47.450;7.516;2023-03-23T18:18:09;2.13;;;1.20;;
9052;SDS011;4561;47.450;7.516;2023-03-23T18:21:30;1.57;;;1.33;;
9052;SDS011;4561;47.450;7.516;2023-03-23T18:24:51;1.40;;;1.30;;
9052;SDS011;4561;47.450;7.516;2023-03-23T18:28:13;1.67;;;1.30;;
9052;SDS011;4561;47.450;7.516;2023-03-23T18:31:33;1.60;;;1.30;;
9052;SDS011;4561;47.450;7.516;2023-03-23T18:35:00;1.40;;;1.30;;
9052;SDS011;4561;47.450;7.516;2023-03-23T18:38:21;1.67;;;1.00;;
9052;SDS011;4561;47.450;7.516;2023-03-23T18:41:44;1.30;;;1.20;;
9052;SDS011;4561;47.450;7.516;2023-03-23T18:45:04;1.97;;;1.40;;
9052;SDS011;4561;47.450;7.516;2023-03-23T18:48:27;1.87;;;1.47;;
9052;SDS011;4561;47.450;7.516;2023-03-23T18:51:48;2.10;;;1.50;;
9052;SDS011;4561;47.450;7.516;2023-03-23T18:55:08;1.83;;;1.30;;
9052;SDS011;4561;47.450;7.516;2023-03-23T18:58:28;2.00;;;1.80;;
9052;SDS011;4561;47.450;7.516;2023-03-23T19:01:49;1.57;;;1.27;;
9052;SDS011;4561;47.450;7.516;2023-03-23T19:05:12;2.27;;;1.60;;
9052;SDS011;4561;47.450;7.516;2023-03-23T19:08:32;1.40;;;1.30;;
9052;SDS011;4561;47.450;7.516;2023-03-23T19:11:56;1.97;;;1.40;;
9052;SDS011;4561;47.450;7.516;2023-03-23T19:15:18;1.47;;;1.30;;
9052;SDS011;4561;47.450;7.516;2023-03-23T19:18:41;3.67;;;1.60;;
9052;SDS011;4561;47.450;7.516;2023-03-23T19:22:02;2.37;;;1.50;;
9052;SDS011;4561;47.450;7.516;2023-03-23T19:25:22;1.67;;;1.47;;
9052;SDS011;4561;47.450;7.516;2023-03-23T19:28:45;2.07;;;1.50;;
9052;SDS011;4561;47.450;7.516;2023-03-23T19:32:05;1.50;;;1.40;;
9052;SDS011;4561;47.450;7.516;2023-03-23T19:35:26;1.57;;;1.40;;
9052;SDS011;4561;47.450;7.516;2023-03-23T19:38:47;2.17;;;1.33;;
9052;SDS011;4561;47.450;7.516;2023-03-23T19:42:09;1.20;;;1.10;;
9052;SDS011;4561;47.450;7.516;2023-03-23T19:45:30;2.00;;;1.37;;
9052;SDS011;4561;47.450;7.516;2023-03-23T19:48:51;1.60;;;1.33;;
9052;SDS011;4561;47.450;7.516;2023-03-23T19:52:11;1.87;;;1.33;;
9052;SDS011;4561;47.450;7.516;2023-03-23T19:55:32;2.90;;;1.30;;
9052;SDS011;4561;47.450;7.516;2023-03-23T19:58:52;1.43;;;1.33;;
9052;SDS011;4561;47.450;7.516;2023-03-23T20:02:13;1.73;;;1.20;;
9052;SDS011;4561;47.450;7.516;2023-03-23T20:05:33;1.20;;;1.10;;
9052;SDS011;4561;47.450;7.516;2023-03-23T20:08:54;1.40;;;1.30;;
9052;SDS011;4561;47.450;7.516;2023-03-23T20:12:14;1.27;;;1.10;;
9052;SDS011;4561;47.450;7.516;2023-03-23T20:15:37;1.83;;;1.17;;
9052;SDS011;4561;47.450;7.516;2023-03-23T20:18:57;2.07;;;1.47;;
9052;SDS011;4561;47.450;7.516;2023-03-23T20:22:18;2.53;;;1.30;;
9052;SDS011;4561;47.450;7.516;2023-03-23T20:25:38;1.50;;;1.10;;
9052;SDS011;4561;47.450;7.516;2023-03-23T20:29:02;2.20;;;1.27;;
9052;SDS011;4561;47.450;7.516;2023-03-23T20:32:23;1.57;;;1.47;;
9052;SDS011;4561;47.450;7.516;2023-03-23T20:35:43;2.43;;;1.40;;
9052;SDS011;4561;47.450;7.516;2023-03-23T20:39:08;3.43;;;1.47;;
9052;SDS011;4561;47.450;7.516;2023-03-23T20:42:38;1.40;;;1.30;;
9052;SDS011;4561;47.450;7.516;2023-03-23T20:45:58;2.27;;;1.20;;
9052;SDS011;4561;47.450;7.516;2023-03-23T20:49:22;1.60;;;1.20;;
9052;SDS011;4561;47.450;7.516;2023-03-23T20:52:43;1.70;;;1.30;;
9052;SDS011;4561;47.450;7.516;2023-03-23T20:56:07;1.23;;;1.13;;
9052;SDS011;4561;47.450;7.516;2023-03-23T20:59:27;1.33;;;1.20;;
9052;SDS011;4561;47.450;7.516;2023-03-23T21:02:48;1.07;;;0.97;;
9052;SDS011;4561;47.450;7.516;2023-03-23T21:06:12;1.27;;;1.17;;
9052;SDS011;4561;47.450;7.516;2023-03-23T21:09:34;1.20;;;1.00;;
9052;SDS011;4561;47.450;7.516;2023-03-23T21:12:54;1.33;;;1.03;;
9052;SDS011;4561;47.450;7.516;2023-03-23T21:16:16;2.37;;;1.20;;
9052;SDS011;4561;47.450;7.516;2023-03-23T21:19:40;1.50;;;1.40;;
9052;SDS011;4561;47.450;7.516;2023-03-23T21:23:00;1.93;;;1.10;;
9052;SDS011;4561;47.450;7.516;2023-03-23T21:26:22;3.07;;;1.30;;
9052;SDS011;4561;47.450;7.516;2023-03-23T21:29:47;4.27;;;1.20;;
9052;SDS011;4561;47.450;7.516;2023-03-23T21:33:07;1.57;;;1.10;;
9052;SDS011;4561;47.450;7.516;2023-03-23T21:36:31;1.57;;;1.20;;
9052;SDS011;4561;47.450;7.516;2023-03-23T21:39:54;1.30;;;1.13;;
9052;SDS011;4561;47.450;7.516;2023-03-23T21:43:14;1.10;;;1.00;;
9052;SDS011;4561;47.450;7.516;2023-03-23T21:46:36;1.10;;;1.00;;
9052;SDS011;4561;47.450;7.516;2023-03-23T21:49:58;2.63;;;1.30;;
9052;SDS011;4561;47.450;7.516;2023-03-23T21:53:18;1.10;;;1.00;;
9052;SDS011;4561;47.450;7.516;2023-03-23T21:56:39;3.53;;;1.33;;
9052;SDS011;4561;47.450;7.516;2023-03-23T22:00:00;1.87;;;1.37;;
9052;SDS011;4561;47.450;7.516;2023-03-23T22:03:21;1.40;;;1.30;;
9052;SDS011;4561;47.450;7.516;2023-03-23T22:06:42;3.27;;;1.20;;
9052;SDS011;4561;47.450;7.516;2023-03-23T22:10:07;1.73;;;1.30;;
9052;SDS011;4561;47.450;7.516;2023-03-23T22:13:29;2.20;;;1.23;;
9052;SDS011;4561;47.450;7.516;2023-03-23T22:16:50;1.20;;;1.10;;
9052;SDS011;4561;47.450;7.516;2023-03-23T22:20:11;2.23;;;1.10;;
9052;SDS011;4561;47.450;7.516;2023-03-23T22:23:35;1.07;;;0.97;;
9052;SDS011;4561;47.450;7.516;2023-03-23T22:26:58;2.07;;;0.90;;
9052;SDS011;4561;47.450;7.516;2023-03-23T22:30:19;2.03;;;0.80;;
9052;SDS011;4561;47.450;7.516;2023-03-23T22:33:40;0.90;;;0.90;;
9052;SDS011;4561;47.450;7.516;2023-03-23T22:37:02;1.63;;;1.03;;
9052;SDS011;4561;47.450;7.516;2023-03-23T22:40:25;1.47;;;1.10;;
9052;SDS011;4561;47.450;7.516;2023-03-23T22:43:46;1.50;;;1.10;;
9052;SDS011;4561;47.450;7.516;2023-03-23T22:47:09;1.00;;;0.90;;
9052;SDS011;4561;47.450;7.516;2023-03-23T22:50:29;2.90;;;1.10;;
9052;SDS011;4561;47.450;7.516;2023-03-23T22:53:49;4.93;;;1.20;;
9052;SDS011;4561;47.450;7.516;2023-03-23T22:57:10;1.30;;;1.20;;
9052;SDS011;4561;47.450;7.516;2023-03-23T23:00:30;1.20;;;1.10;;